Elba, AL (36323)

9:02 AM CDT on July 29, 2016 (GMT -0500)
Indian Hills | | Change Station

Elev 331 ft 31.43 °N, 86.08 °W | Updated 34 seconds ago

Partly Cloudy
Partly Cloudy
82.9 °F
Feels Like 91 °F
N
0.0
Wind Variable Wind from WSW
Gusts 0.0 mph

Today
High -- | Low -- °F
--% Chance of Precip.
Yesterday
High -- | Low -- °F
Precip. -- in
Pressure 30.04 in
Visibility 10.0 miles
Clouds Few 2000 ft
Heat Index 91 °F
Dew Point 76 °F
Humidity 80%
Rainfall 0.00 in
Snow Depth Not available.
5:59 AM 7:41 PM
Waning Crescent, 22% visible
METAR KLOR 291353Z AUTO 29008KT 10SM FEW020 29/24 A3005 RMK AO2 SLP171 T02940239
Pressure 30.04 in
Visibility 10.0 miles
Clouds Few 2000 ft
Heat Index 91 °F
Dew Point 76 °F
Humidity 80%
Rainfall 0.00 in
Snow Depth Not available.
5:59 AM 7:41 PM
Waning Crescent, 22% visible
METAR KLOR 291353Z AUTO 29008KT 10SM FEW020 29/24 A3005 RMK AO2 SLP171 T02940239

10-Day Weather Forecast

Almanac

Astronomy

Jul. 29, 2016 Rise Set
Actual Time
Civil Twilight
Nautical Twilight
Astronomical Twilight
Moon
Length of Visible Light
Length of Day
Tomorrow will be .
, % of the Moon is Illuminated

Today's Extremes

State Highs State Lows

Community

WunderPhotos

Upload Photos

1,928,341 photos uploaded!

WunderBlog® & News

Nearby

Air Quality

  Air Quality AQ Index Pollutant
Not available.

Snow Depth

Station Depth Elevation

Earthquake Activity

City Distance Mag. Time & Date
Minimum magnitude displayed is 2.5.

Coastal Water Temperatures

Place Temperature

Stations

Nearby Weather Stations

Station Location Temp. Windchill Dew Point Humidity Wind Precip. Elev Updated Type
                   

Watches & Warnings

There are currently no watches in effect.